sensor_id;sensor_type;location;lat;lon;timestamp;pressure;altitude;pressure_sealevel;temperature;humidity
23473;BME280;11909;52.516;13.564;2022-10-16T00:01:11;100493.53;;;13.05;100.00
23473;BME280;11909;52.516;13.564;2022-10-16T00:03:37;100499.84;;;13.05;100.00
23473;BME280;11909;52.516;13.564;2022-10-16T00:06:04;100496.28;;;13.05;100.00
23473;BME280;11909;52.516;13.564;2022-10-16T00:08:31;100498.72;;;13.07;100.00
23473;BME280;11909;52.516;13.564;2022-10-16T00:10:59;100501.47;;;13.07;100.00
23473;BME280;11909;52.516;13.564;2022-10-16T00:13:26;100505.06;;;13.07;100.00
23473;BME280;11909;52.516;13.564;2022-10-16T00:15:55;100508.09;;;13.05;100.00
23473;BME280;11909;52.516;13.564;2022-10-16T00:18:23;100509.22;;;13.04;100.00
23473;BME280;11909;52.516;13.564;2022-10-16T00:20:49;100507.31;;;13.05;100.00
23473;BME280;11909;52.516;13.564;2022-10-16T00:23:16;100511.69;;;13.06;100.00
23473;BME280;11909;52.516;13.564;2022-10-16T00:25:42;100510.56;;;13.07;100.00
23473;BME280;11909;52.516;13.564;2022-10-16T00:28:09;100508.00;;;13.11;100.00
23473;BME280;11909;52.516;13.564;2022-10-16T00:30:37;100514.84;;;13.13;100.00
23473;BME280;11909;52.516;13.564;2022-10-16T00:33:04;100512.91;;;13.14;100.00
23473;BME280;11909;52.516;13.564;2022-10-16T00:35:31;100520.88;;;13.15;100.00
23473;BME280;11909;52.516;13.564;2022-10-16T00:37:58;100526.38;;;13.15;100.00
23473;BME280;11909;52.516;13.564;2022-10-16T00:40:24;100526.63;;;13.19;100.00
23473;BME280;11909;52.516;13.564;2022-10-16T00:42:51;100527.13;;;13.21;100.00
23473;BME280;11909;52.516;13.564;2022-10-16T00:45:17;100535.06;;;13.23;100.00
23473;BME280;11909;52.516;13.564;2022-10-16T00:47:45;100533.16;;;13.23;100.00
23473;BME280;11909;52.516;13.564;2022-10-16T00:50:18;100530.59;;;13.27;100.00
23473;BME280;11909;52.516;13.564;2022-10-16T00:52:50;100513.53;;;13.25;100.00
23473;BME280;11909;52.516;13.564;2022-10-16T00:55:18;100527.31;;;13.25;100.00
23473;BME280;11909;52.516;13.564;2022-10-16T00:57:45;100514.16;;;13.22;100.00
23473;BME280;11909;52.516;13.564;2022-10-16T01:00:14;100526.00;;;13.22;100.00
23473;BME280;11909;52.516;13.564;2022-10-16T01:02:41;100532.03;;;13.24;100.00
23473;BME280;11909;52.516;13.564;2022-10-16T01:05:08;100531.19;;;13.24;100.00
23473;BME280;11909;52.516;13.564;2022-10-16T01:07:41;100537.81;;;13.23;100.00
23473;BME280;11909;52.516;13.564;2022-10-16T01:10:22;100536.19;;;13.22;100.00
23473;BME280;11909;52.516;13.564;2022-10-16T01:12:54;100539.78;;;13.22;100.00
23473;BME280;11909;52.516;13.564;2022-10-16T01:15:26;100542.53;;;13.22;100.00
23473;BME280;11909;52.516;13.564;2022-10-16T01:17:58;100532.31;;;13.23;100.00
23473;BME280;11909;52.516;13.564;2022-10-16T01:20:29;100541.69;;;13.22;100.00
23473;BME280;11909;52.516;13.564;2022-10-16T01:23:04;100539.25;;;13.20;100.00
23473;BME280;11909;52.516;13.564;2022-10-16T01:25:51;100541.00;;;13.16;100.00
23473;BME280;11909;52.516;13.564;2022-10-16T01:28:24;100539.16;;;13.11;100.00
23473;BME280;11909;52.516;13.564;2022-10-16T01:30:56;100545.78;;;13.10;100.00
23473;BME280;11909;52.516;13.564;2022-10-16T01:33:28;100555.16;;;13.09;100.00
23473;BME280;11909;52.516;13.564;2022-10-16T01:35:59;100546.91;;;13.09;100.00
23473;BME280;11909;52.516;13.564;2022-10-16T01:38:31;100548.53;;;13.10;100.00
23473;BME280;11909;52.516;13.564;2022-10-16T01:41:02;100551.47;;;13.14;100.00
23473;BME280;11909;52.516;13.564;2022-10-16T01:43:35;100555.91;;;13.15;100.00
23473;BME280;11909;52.516;13.564;2022-10-16T01:46:05;100556.09;;;13.18;100.00
23473;BME280;11909;52.516;13.564;2022-10-16T01:48:32;100566.22;;;13.23;100.00
23473;BME280;11909;52.516;13.564;2022-10-16T01:51:04;100560.38;;;13.25;100.00
23473;BME280;11909;52.516;13.564;2022-10-16T01:53:32;100566.13;;;13.28;100.00
23473;BME280;11909;52.516;13.564;2022-10-16T01:56:00;100570.50;;;13.29;100.00
23473;BME280;11909;52.516;13.564;2022-10-16T01:58:29;100558.34;;;13.30;100.00
23473;BME280;11909;52.516;13.564;2022-10-16T02:01:02;100569.91;;;13.32;100.00
23473;BME280;11909;52.516;13.564;2022-10-16T02:03:32;100569.91;;;13.32;100.00
23473;BME280;11909;52.516;13.564;2022-10-16T02:05:59;100568.78;;;13.33;100.00
23473;BME280;11909;52.516;13.564;2022-10-16T02:08:28;100576.44;;;13.37;100.00
23473;BME280;11909;52.516;13.564;2022-10-16T02:10:56;100580.25;;;13.41;100.00
23473;BME280;11909;52.516;13.564;2022-10-16T02:13:26;100575.53;;;13.41;100.00
23473;BME280;11909;52.516;13.564;2022-10-16T02:15:55;100580.78;;;13.43;100.00
23473;BME280;11909;52.516;13.564;2022-10-16T02:18:23;100577.69;;;13.44;100.00
23473;BME280;11909;52.516;13.564;2022-10-16T02:20:58;100580.47;;;13.44;100.00
23473;BME280;11909;52.516;13.564;2022-10-16T02:23:31;100580.16;;;13.46;100.00
23473;BME280;11909;52.516;13.564;2022-10-16T02:26:03;100591.50;;;13.44;100.00
23473;BME280;11909;52.516;13.564;2022-10-16T02:28:34;100594.47;;;13.48;100.00
23473;BME280;11909;52.516;13.564;2022-10-16T02:31:06;100598.03;;;13.48;100.00
23473;BME280;11909;52.516;13.564;2022-10-16T02:33:36;100586.47;;;13.46;100.00
23473;BME280;11909;52.516;13.564;2022-10-16T02:36:05;100582.81;;;13.51;100.00
23473;BME280;11909;52.516;13.564;2022-10-16T02:38:32;100582.03;;;13.51;100.00
23473;BME280;11909;52.516;13.564;2022-10-16T02:40:59;100590.81;;;13.53;100.00
23473;BME280;11909;52.516;13.564;2022-10-16T02:43:25;100590.50;;;13.68;100.00
23473;BME280;11909;52.516;13.564;2022-10-16T02:45:52;100597.44;;;13.66;100.00
23473;BME280;11909;52.516;13.564;2022-10-16T02:48:18;100598.56;;;13.65;100.00
23473;BME280;11909;52.516;13.564;2022-10-16T02:50:46;100588.84;;;13.67;100.00
23473;BME280;11909;52.516;13.564;2022-10-16T02:53:12;100597.75;;;13.64;100.00
23473;BME280;11909;52.516;13.564;2022-10-16T02:55:39;100600.31;;;13.74;100.00
23473;BME280;11909;52.516;13.564;2022-10-16T02:58:05;100602.53;;;13.72;100.00
23473;BME280;11909;52.516;13.564;2022-10-16T03:00:32;100599.31;;;13.84;100.00
23473;BME280;11909;52.516;13.564;2022-10-16T03:02:58;100591.22;;;13.74;100.00
23473;BME280;11909;52.516;13.564;2022-10-16T03:05:24;100598.69;;;13.73;100.00
23473;BME280;11909;52.516;13.564;2022-10-16T03:07:52;100600.41;;;13.69;100.00
23473;BME280;11909;52.516;13.564;2022-10-16T03:10:19;100602.34;;;13.69;100.00
23473;BME280;11909;52.516;13.564;2022-10-16T03:12:45;100603.09;;;13.74;100.00
23473;BME280;11909;52.516;13.564;2022-10-16T03:15:11;100617.25;;;13.68;100.00
23473;BME280;11909;52.516;13.564;2022-10-16T03:17:38;100617.88;;;13.65;100.00
23473;BME280;11909;52.516;13.564;2022-10-16T03:20:05;100617.94;;;13.59;100.00
23473;BME280;11909;52.516;13.564;2022-10-16T03:22:31;100614.16;;;13.55;100.00
23473;BME280;11909;52.516;13.564;2022-10-16T03:24:59;100613.97;;;13.52;100.00
23473;BME280;11909;52.516;13.564;2022-10-16T03:27:26;100625.59;;;13.48;100.00
23473;BME280;11909;52.516;13.564;2022-10-16T03:29:52;100631.41;;;13.47;100.00
23473;BME280;11909;52.516;13.564;2022-10-16T03:32:18;100613.25;;;13.46;100.00
23473;BME280;11909;52.516;13.564;2022-10-16T03:34:46;100623.44;;;13.45;100.00
23473;BME280;11909;52.516;13.564;2022-10-16T03:37:13;100624.56;;;13.44;100.00
23473;BME280;11909;52.516;13.564;2022-10-16T03:39:39;100623.22;;;13.42;100.00
23473;BME280;11909;52.516;13.564;2022-10-16T03:42:07;100643.94;;;13.39;100.00
23473;BME280;11909;52.516;13.564;2022-10-16T03:44:33;100651.69;;;13.37;100.00
23473;BME280;11909;52.516;13.564;2022-10-16T03:47:00;100649.72;;;13.38;100.00
23473;BME280;11909;52.516;13.564;2022-10-16T03:49:26;100648.09;;;13.37;100.00
23473;BME280;11909;52.516;13.564;2022-10-16T03:51:52;100650.56;;;13.38;100.00
23473;BME280;11909;52.516;13.564;2022-10-16T03:54:19;100654.94;;;13.39;100.00
23473;BME280;11909;52.516;13.564;2022-10-16T03:56:47;100665.47;;;13.37;100.00
23473;BME280;11909;52.516;13.564;2022-10-16T03:59:15;100661.06;;;13.36;100.00
23473;BME280;11909;52.516;13.564;2022-10-16T04:01:41;100665.09;;;13.44;100.00
23473;BME280;11909;52.516;13.564;2022-10-16T04:04:07;100664.28;;;13.43;100.00
23473;BME280;11909;52.516;13.564;2022-10-16T04:06:34;100672.25;;;13.45;100.00
23473;BME280;11909;52.516;13.564;2022-10-16T04:09:00;100670.63;;;13.44;100.00
23473;BME280;11909;52.516;13.564;2022-10-16T04:11:27;100669.50;;;13.45;100.00
23473;BME280;11909;52.516;13.564;2022-10-16T04:13:53;100678.34;;;13.42;100.00
23473;BME280;11909;52.516;13.564;2022-10-16T04:16:21;100682.28;;;13.36;100.00
23473;BME280;11909;52.516;13.564;2022-10-16T04:18:47;100682.91;;;13.32;100.00
23473;BME280;11909;52.516;13.564;2022-10-16T04:21:14;100687.59;;;13.32;100.00
23473;BME280;11909;52.516;13.564;2022-10-16T04:23:41;100681.88;;;13.28;100.00
23473;BME280;11909;52.516;13.564;2022-10-16T04:26:08;100692.38;;;13.26;100.00
23473;BME280;11909;52.516;13.564;2022-10-16T04:28:35;100705.31;;;13.26;100.00
23473;BME280;11909;52.516;13.564;2022-10-16T04:31:03;100687.38;;;13.28;100.00
23473;BME280;11909;52.516;13.564;2022-10-16T04:33:31;100686.25;;;13.29;100.00
23473;BME280;11909;52.516;13.564;2022-10-16T04:35:58;100684.09;;;13.26;100.00
23473;BME280;11909;52.516;13.564;2022-10-16T04:38:25;100684.09;;;13.26;100.00
23473;BME280;11909;52.516;13.564;2022-10-16T04:40:52;100672.66;;;13.19;100.00
23473;BME280;11909;52.516;13.564;2022-10-16T04:43:19;100672.72;;;13.14;100.00
23473;BME280;11909;52.516;13.564;2022-10-16T04:45:46;100666.69;;;13.12;100.00
23473;BME280;11909;52.516;13.564;2022-10-16T04:48:12;100663.41;;;13.10;100.00
23473;BME280;11909;52.516;13.564;2022-10-16T04:50:40;100664.00;;;13.07;100.00
23473;BME280;11909;52.516;13.564;2022-10-16T04:53:07;100670.72;;;13.00;100.00
23473;BME280;11909;52.516;13.564;2022-10-16T04:55:33;100672.13;;;12.98;100.00
23473;BME280;11909;52.516;13.564;2022-10-16T04:58:00;100684.28;;;12.97;100.00
23473;BME280;11909;52.516;13.564;2022-10-16T05:00:26;100672.44;;;12.96;100.00
23473;BME280;11909;52.516;13.564;2022-10-16T05:02:53;100671.41;;;12.92;100.00
23473;BME280;11909;52.516;13.564;2022-10-16T05:05:19;100669.22;;;12.89;100.00
23473;BME280;11909;52.516;13.564;2022-10-16T05:07:47;100675.66;;;12.84;100.00
23473;BME280;11909;52.516;13.564;2022-10-16T05:10:15;100694.69;;;12.81;100.00
23473;BME280;11909;52.516;13.564;2022-10-16T05:12:41;100691.13;;;12.80;100.00
23473;BME280;11909;52.516;13.564;2022-10-16T05:15:08;100710.69;;;12.79;100.00
23473;BME280;11909;52.516;13.564;2022-10-16T05:17:35;100714.56;;;12.77;100.00
23473;BME280;11909;52.516;13.564;2022-10-16T05:20:02;100719.75;;;12.79;100.00
23473;BME280;11909;52.516;13.564;2022-10-16T05:22:29;100721.19;;;12.76;100.00
23473;BME280;11909;52.516;13.564;2022-10-16T05:24:56;100726.69;;;12.76;100.00
23473;BME280;11909;52.516;13.564;2022-10-16T05:27:23;100715.00;;;12.85;100.00
23473;BME280;11909;52.516;13.564;2022-10-16T05:29:49;100717.69;;;12.90;100.00
23473;BME280;11909;52.516;13.564;2022-10-16T05:32:17;100718.53;;;12.90;100.00
23473;BME280;11909;52.516;13.564;2022-10-16T05:34:44;100720.69;;;12.94;100.00
23473;BME280;11909;52.516;13.564;2022-10-16T05:37:11;100717.13;;;12.93;100.00
23473;BME280;11909;52.516;13.564;2022-10-16T05:39:38;100714.41;;;12.88;100.00
23473;BME280;11909;52.516;13.564;2022-10-16T05:42:06;100713.69;;;12.82;100.00
23473;BME280;11909;52.516;13.564;2022-10-16T05:44:32;100709.88;;;12.78;100.00
23473;BME280;11909;52.516;13.564;2022-10-16T05:46:59;100726.97;;;12.75;100.00
23473;BME280;11909;52.516;13.564;2022-10-16T05:49:25;100728.94;;;12.74;100.00
23473;BME280;11909;52.516;13.564;2022-10-16T05:51:52;100734.66;;;12.78;100.00
23473;BME280;11909;52.516;13.564;2022-10-16T05:54:18;100735.47;;;12.79;100.00
23473;BME280;11909;52.516;13.564;2022-10-16T05:56:45;100733.53;;;12.79;100.00
23473;BME280;11909;52.516;13.564;2022-10-16T05:59:12;100726.09;;;12.80;100.00
23473;BME280;11909;52.516;13.564;2022-10-16T06:01:39;100725.59;;;12.77;100.00
23473;BME280;11909;52.516;13.564;2022-10-16T06:04:05;100727.81;;;12.75;100.00
23473;BME280;11909;52.516;13.564;2022-10-16T06:06:32;100727.81;;;12.75;100.00
23473;BME280;11909;52.516;13.564;2022-10-16T06:08:58;100729.44;;;12.76;100.00
23473;BME280;11909;52.516;13.564;2022-10-16T06:11:26;100736.59;;;12.77;100.00
23473;BME280;11909;52.516;13.564;2022-10-16T06:13:54;100732.97;;;12.82;100.00
23473;BME280;11909;52.516;13.564;2022-10-16T06:16:23;100746.13;;;12.85;100.00
23473;BME280;11909;52.516;13.564;2022-10-16T06:18:50;100750.53;;;12.86;100.00
23473;BME280;11909;52.516;13.564;2022-10-16T06:21:19;100749.41;;;12.87;100.00
23473;BME280;11909;52.516;13.564;2022-10-16T06:23:46;100760.94;;;12.89;100.00
23473;BME280;11909;52.516;13.564;2022-10-16T06:26:14;100757.00;;;12.96;100.00
23473;BME280;11909;52.516;13.564;2022-10-16T06:28:40;100755.09;;;12.96;100.00
23473;BME280;11909;52.516;13.564;2022-10-16T06:31:08;100759.47;;;12.97;100.00
23473;BME280;11909;52.516;13.564;2022-10-16T06:33:37;100745.72;;;12.97;100.00
23473;BME280;11909;52.516;13.564;2022-10-16T06:36:06;100749.25;;;12.98;100.00
23473;BME280;11909;52.516;13.564;2022-10-16T06:38:34;100763.03;;;12.98;100.00
23473;BME280;11909;52.516;13.564;2022-10-16T06:41:00;100760.50;;;13.01;100.00
23473;BME280;11909;52.516;13.564;2022-10-16T06:43:28;100767.94;;;13.01;100.00
23473;BME280;11909;52.516;13.564;2022-10-16T06:45:58;100771.22;;;13.03;100.00
23473;BME280;11909;52.516;13.564;2022-10-16T06:48:25;100777.28;;;13.05;100.00
23473;BME280;11909;52.516;13.564;2022-10-16T06:50:57;100787.72;;;13.08;100.00
23473;BME280;11909;52.516;13.564;2022-10-16T06:53:24;100787.91;;;13.12;100.00
23473;BME280;11909;52.516;13.564;2022-10-16T06:55:50;100786.00;;;13.12;100.00
23473;BME280;11909;52.516;13.564;2022-10-16T06:58:17;100787.63;;;13.13;100.00
23473;BME280;11909;52.516;13.564;2022-10-16T07:00:43;100789.50;;;13.18;100.00
23473;BME280;11909;52.516;13.564;2022-10-16T07:03:10;100789.19;;;13.19;100.00
23473;BME280;11909;52.516;13.564;2022-10-16T07:05:37;100800.72;;;13.22;100.00
23473;BME280;11909;52.516;13.564;2022-10-16T07:08:05;100799.09;;;13.20;100.00
23473;BME280;11909;52.516;13.564;2022-10-16T07:10:32;100800.44;;;13.23;100.00
23473;BME280;11909;52.516;13.564;2022-10-16T07:12:58;100802.59;;;13.26;100.00
23473;BME280;11909;52.516;13.564;2022-10-16T07:15:25;100802.00;;;13.29;100.00
23473;BME280;11909;52.516;13.564;2022-10-16T07:17:51;100805.81;;;13.33;100.00
23473;BME280;11909;52.516;13.564;2022-10-16T07:20:18;100816.47;;;13.40;100.00
23473;BME280;11909;52.516;13.564;2022-10-16T07:22:45;100827.75;;;13.44;100.00
23473;BME280;11909;52.516;13.564;2022-10-16T07:25:13;100823.72;;;13.55;100.00
23473;BME280;11909;52.516;13.564;2022-10-16T07:27:39;100823.06;;;13.64;100.00
23473;BME280;11909;52.516;13.564;2022-10-16T07:30:06;100818.06;;;13.66;100.00
23473;BME280;11909;52.516;13.564;2022-10-16T07:32:33;100820.22;;;13.69;100.00
23473;BME280;11909;52.516;13.564;2022-10-16T07:35:00;100823.72;;;13.74;100.00
23473;BME280;11909;52.516;13.564;2022-10-16T07:37:26;100825.28;;;13.81;100.00
23473;BME280;11909;52.516;13.564;2022-10-16T07:39:52;100826.53;;;13.88;100.00
23473;BME280;11909;52.516;13.564;2022-10-16T07:42:20;100817.03;;;13.95;100.00
23473;BME280;11909;52.516;13.564;2022-10-16T07:44:46;100814.78;;;13.97;100.00
23473;BME280;11909;52.516;13.564;2022-10-16T07:47:13;100818.91;;;13.99;100.00
23473;BME280;11909;52.516;13.564;2022-10-16T07:49:39;100816.47;;;14.12;100.00
23473;BME280;11909;52.516;13.564;2022-10-16T07:52:06;100819.22;;;14.12;100.00
23473;BME280;11909;52.516;13.564;2022-10-16T07:54:32;100826.38;;;14.13;100.00
23473;BME280;11909;52.516;13.564;2022-10-16T07:56:59;100810.34;;;14.15;100.00
23473;BME280;11909;52.516;13.564;2022-10-16T07:59:26;100814.97;;;14.19;100.00
23473;BME280;11909;52.516;13.564;2022-10-16T08:01:53;100815.47;;;14.22;100.00
23473;BME280;11909;52.516;13.564;2022-10-16T08:04:19;100822.84;;;14.26;100.00
23473;BME280;11909;52.516;13.564;2022-10-16T08:06:45;100812.84;;;14.30;100.00
23473;BME280;11909;52.516;13.564;2022-10-16T08:09:12;100822.03;;;14.40;100.00
23473;BME280;11909;52.516;13.564;2022-10-16T08:11:39;100834.31;;;14.47;100.00
23473;BME280;11909;52.516;13.564;2022-10-16T08:14:05;100840.56;;;14.53;100.00
23473;BME280;11909;52.516;13.564;2022-10-16T08:16:33;100847.63;;;14.59;100.00
23473;BME280;11909;52.516;13.564;2022-10-16T08:19:00;100850.72;;;14.58;100.00
23473;BME280;11909;52.516;13.564;2022-10-16T08:21:26;100867.28;;;14.58;100.00
23473;BME280;11909;52.516;13.564;2022-10-16T08:23:53;100868.13;;;14.72;100.00
23473;BME280;11909;52.516;13.564;2022-10-16T08:26:20;100853.94;;;14.79;100.00
23473;BME280;11909;52.516;13.564;2022-10-16T08:28:49;100855.88;;;14.79;100.00
23473;BME280;11909;52.516;13.564;2022-10-16T08:31:16;100846.88;;;14.87;100.00
23473;BME280;11909;52.516;13.564;2022-10-16T08:33:44;100841.25;;;14.78;100.00
23473;BME280;11909;52.516;13.564;2022-10-16T08:36:13;100841.84;;;14.75;100.00
23473;BME280;11909;52.516;13.564;2022-10-16T08:38:40;100862.72;;;14.81;100.00
23473;BME280;11909;52.516;13.564;2022-10-16T08:44:41;100863.75;;;14.85;100.00
23473;BME280;11909;52.516;13.564;2022-10-16T08:47:17;100864.25;;;14.87;100.00
23473;BME280;11909;52.516;13.564;2022-10-16T08:49:56;100871.31;;;15.08;100.00
23473;BME280;11909;52.516;13.564;2022-10-16T08:52:25;100853.72;;;15.03;100.00
23473;BME280;11909;52.516;13.564;2022-10-16T08:54:55;100854.66;;;14.99;100.00
23473;BME280;11909;52.516;13.564;2022-10-16T08:57:24;100858.53;;;15.12;100.00
23473;BME280;11909;52.516;13.564;2022-10-16T08:59:52;100862.03;;;15.03;100.00
23473;BME280;11909;52.516;13.564;2022-10-16T09:02:24;100859.94;;;15.09;100.00
23473;BME280;11909;52.516;13.564;2022-10-16T09:05:02;100865.16;;;15.25;100.00
23473;BME280;11909;52.516;13.564;2022-10-16T09:07:41;100868.34;;;15.18;100.00
23473;BME280;11909;52.516;13.564;2022-10-16T09:10:20;100875.41;;;15.38;100.00
23473;BME280;11909;52.516;13.564;2022-10-16T09:12:56;100881.41;;;15.54;100.00
23473;BME280;11909;52.516;13.564;2022-10-16T09:15:32;100885.69;;;15.60;100.00
23473;BME280;11909;52.516;13.564;2022-10-16T09:18:05;100871.75;;;15.52;100.00
23473;BME280;11909;52.516;13.564;2022-10-16T09:20:51;100890.16;;;15.70;100.00
23473;BME280;11909;52.516;13.564;2022-10-16T09:23:25;100903.75;;;15.95;98.52
23473;BME280;11909;52.516;13.564;2022-10-16T09:25:53;100907.31;;;15.95;97.98
23473;BME280;11909;52.516;13.564;2022-10-16T09:28:21;100910.53;;;16.11;95.69
23473;BME280;11909;52.516;13.564;2022-10-16T09:30:48;100901.72;;;16.09;95.20
23473;BME280;11909;52.516;13.564;2022-10-16T09:33:16;100899.38;;;16.16;95.25
23473;BME280;11909;52.516;13.564;2022-10-16T09:35:46;100893.75;;;16.08;95.78
23473;BME280;11909;52.516;13.564;2022-10-16T09:38:23;100904.00;;;16.07;96.28
23473;BME280;11909;52.516;13.564;2022-10-16T09:40:50;100898.84;;;16.14;95.00
23473;BME280;11909;52.516;13.564;2022-10-16T09:43:22;100912.94;;;16.27;93.24
23473;BME280;11909;52.516;13.564;2022-10-16T09:45:57;100906.78;;;16.30;92.91
23473;BME280;11909;52.516;13.564;2022-10-16T09:48:26;100915.63;;;16.41;92.54
23473;BME280;11909;52.516;13.564;2022-10-16T09:50:59;100919.16;;;16.55;91.18
23473;BME280;11909;52.516;13.564;2022-10-16T09:53:39;100925.38;;;16.61;90.17
23473;BME280;11909;52.516;13.564;2022-10-16T09:56:05;100931.44;;;16.63;90.43
23473;BME280;11909;52.516;13.564;2022-10-16T09:58:32;100929.31;;;16.69;88.96
23473;BME280;11909;52.516;13.564;2022-10-16T10:00:59;100936.53;;;16.78;88.06
23473;BME280;11909;52.516;13.564;2022-10-16T10:03:37;100943.88;;;16.74;88.43
23473;BME280;11909;52.516;13.564;2022-10-16T10:06:18;100948.06;;;16.72;87.74
23473;BME280;11909;52.516;13.564;2022-10-16T10:08:56;100946.13;;;16.72;87.74
23473;BME280;11909;52.516;13.564;2022-10-16T10:11:44;100944.94;;;16.65;88.61
23473;BME280;11909;52.516;13.564;2022-10-16T10:14:18;100946.78;;;16.69;88.31
23473;BME280;11909;52.516;13.564;2022-10-16T10:16:45;100950.44;;;16.56;90.02
23473;BME280;11909;52.516;13.564;2022-10-16T10:19:16;100956.97;;;16.60;90.59
23473;BME280;11909;52.516;13.564;2022-10-16T10:21:45;100955.09;;;16.69;89.85
23473;BME280;11909;52.516;13.564;2022-10-16T10:24:12;100956.72;;;16.70;88.89
23473;BME280;11909;52.516;13.564;2022-10-16T10:26:43;100953.38;;;16.82;87.17
23473;BME280;11909;52.516;13.564;2022-10-16T10:29:19;100957.19;;;16.95;86.08
23473;BME280;11909;52.516;13.564;2022-10-16T10:31:54;100972.75;;;17.05;85.24
23473;BME280;11909;52.516;13.564;2022-10-16T10:34:37;100974.53;;;17.01;84.58
23473;BME280;11909;52.516;13.564;2022-10-16T10:37:20;100971.03;;;16.95;84.80
23473;BME280;11909;52.516;13.564;2022-10-16T10:39:56;100976.84;;;17.08;83.78
23473;BME280;11909;52.516;13.564;2022-10-16T10:42:28;100978.84;;;17.16;83.33
23473;BME280;11909;52.516;13.564;2022-10-16T10:47:49;100998.75;;;17.18;82.53
23473;BME280;11909;52.516;13.564;2022-10-16T10:50:23;100987.34;;;17.28;82.40
23473;BME280;11909;52.516;13.564;2022-10-16T10:53:04;101000.31;;;17.42;81.03
23473;BME280;11909;52.516;13.564;2022-10-16T10:55:37;100988.88;;;17.34;82.08
23473;BME280;11909;52.516;13.564;2022-10-16T10:58:34;100988.91;;;17.43;79.49
23473;BME280;11909;52.516;13.564;2022-10-16T11:01:07;100995.19;;;17.26;80.79
23473;BME280;11909;52.516;13.564;2022-10-16T11:03:45;101004.03;;;17.37;80.03
23473;BME280;11909;52.516;13.564;2022-10-16T11:06:19;101000.94;;;17.39;78.62
23473;BME280;11909;52.516;13.564;2022-10-16T11:08:53;100992.94;;;17.37;79.76
23473;BME280;11909;52.516;13.564;2022-10-16T11:11:25;100991.31;;;17.36;79.96
23473;BME280;11909;52.516;13.564;2022-10-16T11:13:58;100997.56;;;17.51;78.16
23473;BME280;11909;52.516;13.564;2022-10-16T11:16:28;101009.50;;;17.60;77.48
23473;BME280;11909;52.516;13.564;2022-10-16T11:18:59;101010.72;;;17.85;75.49
23473;BME280;11909;52.516;13.564;2022-10-16T11:21:36;101008.38;;;17.70;76.45
23473;BME280;11909;52.516;13.564;2022-10-16T11:24:15;101007.78;;;17.90;73.72
23473;BME280;11909;52.516;13.564;2022-10-16T11:26:46;101004.00;;;17.86;74.62
23473;BME280;11909;52.516;13.564;2022-10-16T11:29:19;101018.59;;;18.01;72.48
23473;BME280;11909;52.516;13.564;2022-10-16T11:31:49;101014.47;;;17.89;73.17
23473;BME280;11909;52.516;13.564;2022-10-16T11:34:22;101024.97;;;18.01;70.08
23473;BME280;11909;52.516;13.564;2022-10-16T11:36:53;101021.84;;;17.94;70.70
23473;BME280;11909;52.516;13.564;2022-10-16T11:39:26;101028.38;;;17.98;69.65
23473;BME280;11909;52.516;13.564;2022-10-16T11:41:56;101014.13;;;17.82;70.99
23473;BME280;11909;52.516;13.564;2022-10-16T11:44:36;101014.44;;;17.81;70.89
23473;BME280;11909;52.516;13.564;2022-10-16T11:47:13;101018.22;;;17.94;69.46
23473;BME280;11909;52.516;13.564;2022-10-16T11:49:44;101019.22;;;17.89;68.91
23473;BME280;11909;52.516;13.564;2022-10-16T11:52:17;101012.84;;;17.88;69.03
23473;BME280;11909;52.516;13.564;2022-10-16T11:54:52;101021.66;;;17.99;66.71
23473;BME280;11909;52.516;13.564;2022-10-16T11:57:23;101025.28;;;18.00;67.38
23473;BME280;11909;52.516;13.564;2022-10-16T11:59:55;101029.66;;;17.92;68.57
23473;BME280;11909;52.516;13.564;2022-10-16T12:02:33;101019.31;;;17.75;70.12
23473;BME280;11909;52.516;13.564;2022-10-16T12:05:18;101032.25;;;17.88;68.65
23473;BME280;11909;52.516;13.564;2022-10-16T12:07:54;101033.91;;;17.98;66.83
23473;BME280;11909;52.516;13.564;2022-10-16T12:10:26;101050.47;;;18.12;64.33
23473;BME280;11909;52.516;13.564;2022-10-16T12:12:54;101052.44;;;18.03;64.56
23473;BME280;11909;52.516;13.564;2022-10-16T12:15:24;101049.88;;;17.84;65.73
23473;BME280;11909;52.516;13.564;2022-10-16T12:17:51;101056.28;;;17.84;65.53
23473;BME280;11909;52.516;13.564;2022-10-16T12:20:28;101063.78;;;17.92;64.14
23473;BME280;11909;52.516;13.564;2022-10-16T12:22:58;101067.94;;;18.04;63.65
23473;BME280;11909;52.516;13.564;2022-10-16T12:25:29;101064.03;;;18.14;63.27
23473;BME280;11909;52.516;13.564;2022-10-16T12:27:59;101065.69;;;18.15;63.21
23473;BME280;11909;52.516;13.564;2022-10-16T12:30:27;101056.84;;;18.13;63.99
23473;BME280;11909;52.516;13.564;2022-10-16T12:32:56;101082.03;;;18.34;60.74
23473;BME280;11909;52.516;13.564;2022-10-16T12:35:26;101080.72;;;18.49;59.66
23473;BME280;11909;52.516;13.564;2022-10-16T12:37:54;101083.03;;;18.47;59.61
23473;BME280;11909;52.516;13.564;2022-10-16T12:40:28;101088.25;;;18.48;59.80
23473;BME280;11909;52.516;13.564;2022-10-16T12:42:56;101074.03;;;18.41;60.56
23473;BME280;11909;52.516;13.564;2022-10-16T12:45:25;101083.50;;;18.49;60.58
23473;BME280;11909;52.516;13.564;2022-10-16T12:47:54;101080.72;;;18.49;61.05
23473;BME280;11909;52.516;13.564;2022-10-16T12:50:26;101081.88;;;18.57;60.14